Puisoye, Argentina
Current Conditions -  °F | °C
As of 7:00 AM on Sunday 21 Dec 2014 (Local Time) from SARC Reporting Station
Thunderstorm Thunderstorm  
Wind Chill: 21°   Ceiling: 4000
Heat Index: 21°   Visibility: 2.5mi
Dew Point: 20°   Wind: 13mph
Humidity: 94%   Direction: 160°SSE
Pressure: 29.59"   Gusts: NA
Location:  27.88°S, 57.87°W
Report Text: SARC 211000Z 16011KT 4000 TSRA FEW008OVC040 FEW050CB 21/20 Q1002
Loading
Personal Weather Stations






























Interactive Weather Map New forecast layout! Learn more

10-Day Weather Forecast

Advertisements
Track Severe Weather on mobile